Terminal Aerodrome Forecast
Issued by NWS

Home | Current Version | Previous Version | Text Only | Print | Product List | Glossary On
Versions: 1 2 3 4 5 6 7 8 9 10 11 12 13 14
000
FTUS43 KIND 021100
TAFBMG
TAF
KBMG 021121Z 0212/0312 15008KT P6SM BKN050 OVC100
      TEMPO 0213/0216 5SM -SHRA SCT025 OVC050
     FM021700 17010KT P6SM BKN050 BKN100
     FM022100 17009KT P6SM SCT050 SCT100 BKN250
     FM030700 17012KT 5SM -SHRA SCT025 OVC040
      TEMPO 0307/0311 2SM TSRA BKN025 OVC040CB
      AMD LTD TO CLD VIS AND WIND TIL 021300=

USA.gov is the U.S. government's official web portal to all federal, state and local government web resources and services.